sensor_id;sensor_type;location;lat;lon;timestamp;P1;durP1;ratioP1;P2;durP2;ratioP2
46391;SDS011;32098;49.448;7.904;2023-04-01T00:01:16;9.60;;;1.30;;
46391;SDS011;32098;49.448;7.904;2023-04-01T00:03:43;3.67;;;1.00;;
46391;SDS011;32098;49.448;7.904;2023-04-01T00:06:14;4.57;;;1.00;;
46391;SDS011;32098;49.448;7.904;2023-04-01T00:08:42;5.93;;;1.03;;
46391;SDS011;32098;49.448;7.904;2023-04-01T00:11:11;3.77;;;1.07;;
46391;SDS011;32098;49.448;7.904;2023-04-01T00:13:38;6.67;;;1.10;;
46391;SDS011;32098;49.448;7.904;2023-04-01T00:16:07;2.50;;;0.80;;
46391;SDS011;32098;49.448;7.904;2023-04-01T00:18:46;2.07;;;0.90;;
46391;SDS011;32098;49.448;7.904;2023-04-01T00:21:16;3.33;;;1.50;;
46391;SDS011;32098;49.448;7.904;2023-04-01T00:23:43;4.13;;;0.80;;
46391;SDS011;32098;49.448;7.904;2023-04-01T00:26:10;4.93;;;1.00;;
46391;SDS011;32098;49.448;7.904;2023-04-01T00:28:39;3.47;;;0.93;;
46391;SDS011;32098;49.448;7.904;2023-04-01T00:31:06;3.23;;;1.20;;
46391;SDS011;32098;49.448;7.904;2023-04-01T00:33:35;5.10;;;1.03;;
46391;SDS011;32098;49.448;7.904;2023-04-01T00:36:10;3.97;;;1.10;;
46391;SDS011;32098;49.448;7.904;2023-04-01T00:38:38;3.93;;;1.10;;
46391;SDS011;32098;49.448;7.904;2023-04-01T00:41:05;3.47;;;0.90;;
46391;SDS011;32098;49.448;7.904;2023-04-01T00:43:32;4.50;;;0.97;;
46391;SDS011;32098;49.448;7.904;2023-04-01T00:46:00;4.70;;;1.20;;
46391;SDS011;32098;49.448;7.904;2023-04-01T00:48:28;4.20;;;1.20;;
46391;SDS011;32098;49.448;7.904;2023-04-01T00:53:33;4.57;;;1.30;;
46391;SDS011;32098;49.448;7.904;2023-04-01T00:56:13;5.33;;;1.53;;
46391;SDS011;32098;49.448;7.904;2023-04-01T00:58:49;2.80;;;1.13;;
46391;SDS011;32098;49.448;7.904;2023-04-01T01:01:19;2.43;;;1.00;;
46391;SDS011;32098;49.448;7.904;2023-04-01T01:03:48;3.93;;;1.03;;
46391;SDS011;32098;49.448;7.904;2023-04-01T01:09:06;3.93;;;1.10;;
46391;SDS011;32098;49.448;7.904;2023-04-01T01:11:44;5.73;;;1.03;;
46391;SDS011;32098;49.448;7.904;2023-04-01T01:14:30;2.10;;;0.90;;
46391;SDS011;32098;49.448;7.904;2023-04-01T01:17:27;3.07;;;0.90;;
46391;SDS011;32098;49.448;7.904;2023-04-01T01:20:18;4.53;;;1.03;;
46391;SDS011;32098;49.448;7.904;2023-04-01T01:23:06;3.63;;;1.10;;
46391;SDS011;32098;49.448;7.904;2023-04-01T01:26:07;6.70;;;1.60;;
46391;SDS011;32098;49.448;7.904;2023-04-01T01:31:36;5.03;;;1.50;;
46391;SDS011;32098;49.448;7.904;2023-04-01T01:37:00;5.50;;;1.30;;
46391;SDS011;32098;49.448;7.904;2023-04-01T01:39:40;4.90;;;1.20;;
46391;SDS011;32098;49.448;7.904;2023-04-01T01:42:11;4.00;;;1.03;;
46391;SDS011;32098;49.448;7.904;2023-04-01T01:44:42;5.40;;;1.50;;
46391;SDS011;32098;49.448;7.904;2023-04-01T01:47:10;4.20;;;1.20;;
46391;SDS011;32098;49.448;7.904;2023-04-01T01:49:40;7.03;;;1.20;;
46391;SDS011;32098;49.448;7.904;2023-04-01T01:52:09;4.40;;;1.23;;
46391;SDS011;32098;49.448;7.904;2023-04-01T01:54:46;4.30;;;1.40;;
46391;SDS011;32098;49.448;7.904;2023-04-01T01:57:26;5.30;;;1.10;;
46391;SDS011;32098;49.448;7.904;2023-04-01T02:00:04;4.07;;;1.30;;
46391;SDS011;32098;49.448;7.904;2023-04-01T02:02:46;7.97;;;1.70;;
46391;SDS011;32098;49.448;7.904;2023-04-01T02:05:15;2.80;;;1.30;;
46391;SDS011;32098;49.448;7.904;2023-04-01T02:07:46;5.77;;;1.40;;
46391;SDS011;32098;49.448;7.904;2023-04-01T02:10:21;7.13;;;1.53;;
46391;SDS011;32098;49.448;7.904;2023-04-01T02:12:52;6.37;;;1.30;;
46391;SDS011;32098;49.448;7.904;2023-04-01T02:15:23;7.03;;;1.50;;
46391;SDS011;32098;49.448;7.904;2023-04-01T02:17:54;5.27;;;1.10;;
46391;SDS011;32098;49.448;7.904;2023-04-01T02:20:23;5.37;;;1.40;;
46391;SDS011;32098;49.448;7.904;2023-04-01T02:22:51;6.50;;;1.63;;
46391;SDS011;32098;49.448;7.904;2023-04-01T02:25:25;3.47;;;1.03;;
46391;SDS011;32098;49.448;7.904;2023-04-01T02:27:54;3.20;;;1.30;;
46391;SDS011;32098;49.448;7.904;2023-04-01T02:30:25;5.90;;;1.67;;
46391;SDS011;32098;49.448;7.904;2023-04-01T02:32:55;4.50;;;1.40;;
46391;SDS011;32098;49.448;7.904;2023-04-01T02:35:24;4.67;;;1.43;;
46391;SDS011;32098;49.448;7.904;2023-04-01T02:37:52;4.43;;;1.30;;
46391;SDS011;32098;49.448;7.904;2023-04-01T02:40:21;7.50;;;1.50;;
46391;SDS011;32098;49.448;7.904;2023-04-01T02:42:48;7.93;;;1.90;;
46391;SDS011;32098;49.448;7.904;2023-04-01T02:45:15;4.50;;;1.30;;
46391;SDS011;32098;49.448;7.904;2023-04-01T02:47:42;7.00;;;1.43;;
46391;SDS011;32098;49.448;7.904;2023-04-01T02:50:09;2.77;;;1.00;;
46391;SDS011;32098;49.448;7.904;2023-04-01T02:52:36;7.57;;;1.20;;
46391;SDS011;32098;49.448;7.904;2023-04-01T02:55:03;4.80;;;1.37;;
46391;SDS011;32098;49.448;7.904;2023-04-01T02:57:30;4.17;;;1.00;;
46391;SDS011;32098;49.448;7.904;2023-04-01T02:59:57;6.33;;;1.07;;
46391;SDS011;32098;49.448;7.904;2023-04-01T03:02:24;3.53;;;1.33;;
46391;SDS011;32098;49.448;7.904;2023-04-01T03:04:51;3.30;;;1.30;;
46391;SDS011;32098;49.448;7.904;2023-04-01T03:07:18;7.30;;;1.77;;
46391;SDS011;32098;49.448;7.904;2023-04-01T03:09:48;3.03;;;1.10;;
46391;SDS011;32098;49.448;7.904;2023-04-01T03:12:14;3.83;;;1.07;;
46391;SDS011;32098;49.448;7.904;2023-04-01T03:14:48;3.47;;;1.30;;
46391;SDS011;32098;49.448;7.904;2023-04-01T03:17:16;2.63;;;1.17;;
46391;SDS011;32098;49.448;7.904;2023-04-01T03:19:42;5.50;;;1.67;;
46391;SDS011;32098;49.448;7.904;2023-04-01T03:22:10;4.83;;;1.63;;
46391;SDS011;32098;49.448;7.904;2023-04-01T03:24:37;3.83;;;1.40;;
46391;SDS011;32098;49.448;7.904;2023-04-01T03:27:04;8.83;;;1.80;;
46391;SDS011;32098;49.448;7.904;2023-04-01T03:29:30;4.37;;;1.37;;
46391;SDS011;32098;49.448;7.904;2023-04-01T03:31:57;4.00;;;1.30;;
46391;SDS011;32098;49.448;7.904;2023-04-01T03:34:26;5.17;;;1.87;;
46391;SDS011;32098;49.448;7.904;2023-04-01T03:36:53;3.87;;;1.03;;
46391;SDS011;32098;49.448;7.904;2023-04-01T03:39:20;5.27;;;1.40;;
46391;SDS011;32098;49.448;7.904;2023-04-01T03:41:49;6.53;;;1.37;;
46391;SDS011;32098;49.448;7.904;2023-04-01T03:44:16;3.33;;;1.20;;
46391;SDS011;32098;49.448;7.904;2023-04-01T03:46:45;5.23;;;1.27;;
46391;SDS011;32098;49.448;7.904;2023-04-01T03:49:12;4.67;;;1.13;;
46391;SDS011;32098;49.448;7.904;2023-04-01T03:51:39;4.87;;;1.27;;
46391;SDS011;32098;49.448;7.904;2023-04-01T03:54:08;3.17;;;1.30;;
46391;SDS011;32098;49.448;7.904;2023-04-01T03:56:36;5.80;;;1.43;;
46391;SDS011;32098;49.448;7.904;2023-04-01T03:59:04;3.90;;;1.37;;
46391;SDS011;32098;49.448;7.904;2023-04-01T04:01:32;4.67;;;1.10;;
46391;SDS011;32098;49.448;7.904;2023-04-01T04:03:59;4.47;;;1.30;;
46391;SDS011;32098;49.448;7.904;2023-04-01T04:06:26;7.63;;;1.50;;
46391;SDS011;32098;49.448;7.904;2023-04-01T04:08:54;7.53;;;1.30;;
46391;SDS011;32098;49.448;7.904;2023-04-01T04:11:21;8.30;;;1.37;;
46391;SDS011;32098;49.448;7.904;2023-04-01T04:13:50;5.03;;;1.17;;
46391;SDS011;32098;49.448;7.904;2023-04-01T04:16:19;6.03;;;1.57;;
46391;SDS011;32098;49.448;7.904;2023-04-01T04:18:53;3.60;;;1.20;;
46391;SDS011;32098;49.448;7.904;2023-04-01T04:21:19;5.87;;;1.40;;
46391;SDS011;32098;49.448;7.904;2023-04-01T04:23:46;6.77;;;1.93;;
46391;SDS011;32098;49.448;7.904;2023-04-01T04:26:15;4.93;;;1.33;;
46391;SDS011;32098;49.448;7.904;2023-04-01T04:28:48;9.43;;;1.83;;
46391;SDS011;32098;49.448;7.904;2023-04-01T04:31:20;5.23;;;1.43;;
46391;SDS011;32098;49.448;7.904;2023-04-01T04:33:53;4.73;;;1.50;;
46391;SDS011;32098;49.448;7.904;2023-04-01T04:36:21;5.13;;;1.43;;
46391;SDS011;32098;49.448;7.904;2023-04-01T04:38:50;6.27;;;1.07;;
46391;SDS011;32098;49.448;7.904;2023-04-01T04:41:17;4.37;;;1.30;;
46391;SDS011;32098;49.448;7.904;2023-04-01T04:43:49;4.93;;;1.20;;
46391;SDS011;32098;49.448;7.904;2023-04-01T04:46:17;4.17;;;1.10;;
46391;SDS011;32098;49.448;7.904;2023-04-01T04:48:46;3.87;;;1.30;;
46391;SDS011;32098;49.448;7.904;2023-04-01T04:51:15;6.77;;;1.23;;
46391;SDS011;32098;49.448;7.904;2023-04-01T04:53:42;2.77;;;1.10;;
46391;SDS011;32098;49.448;7.904;2023-04-01T04:56:09;2.17;;;1.17;;
46391;SDS011;32098;49.448;7.904;2023-04-01T04:58:44;3.80;;;1.30;;
46391;SDS011;32098;49.448;7.904;2023-04-01T05:01:16;3.47;;;1.23;;
46391;SDS011;32098;49.448;7.904;2023-04-01T05:03:43;3.43;;;1.00;;
46391;SDS011;32098;49.448;7.904;2023-04-01T05:06:12;2.23;;;0.90;;
46391;SDS011;32098;49.448;7.904;2023-04-01T05:08:39;2.53;;;1.00;;
46391;SDS011;32098;49.448;7.904;2023-04-01T05:11:12;3.93;;;1.33;;
46391;SDS011;32098;49.448;7.904;2023-04-01T05:13:42;2.73;;;1.23;;
46391;SDS011;32098;49.448;7.904;2023-04-01T05:16:10;5.97;;;1.63;;
46391;SDS011;32098;49.448;7.904;2023-04-01T05:18:41;4.80;;;1.30;;
46391;SDS011;32098;49.448;7.904;2023-04-01T05:21:09;5.80;;;2.03;;
46391;SDS011;32098;49.448;7.904;2023-04-01T05:23:37;4.40;;;1.33;;
46391;SDS011;32098;49.448;7.904;2023-04-01T05:26:05;4.37;;;1.00;;
46391;SDS011;32098;49.448;7.904;2023-04-01T05:28:33;3.20;;;1.00;;
46391;SDS011;32098;49.448;7.904;2023-04-01T05:31:00;2.87;;;0.80;;
46391;SDS011;32098;49.448;7.904;2023-04-01T05:33:39;3.63;;;0.97;;
46391;SDS011;32098;49.448;7.904;2023-04-01T05:36:10;3.40;;;1.27;;
46391;SDS011;32098;49.448;7.904;2023-04-01T05:38:39;4.43;;;1.33;;
46391;SDS011;32098;49.448;7.904;2023-04-01T05:41:10;3.27;;;1.13;;
46391;SDS011;32098;49.448;7.904;2023-04-01T05:43:41;6.27;;;1.10;;
46391;SDS011;32098;49.448;7.904;2023-04-01T05:46:28;6.77;;;1.60;;
46391;SDS011;32098;49.448;7.904;2023-04-01T05:49:14;3.73;;;1.00;;
46391;SDS011;32098;49.448;7.904;2023-04-01T05:51:42;3.63;;;1.03;;
46391;SDS011;32098;49.448;7.904;2023-04-01T05:54:08;5.17;;;1.23;;
46391;SDS011;32098;49.448;7.904;2023-04-01T05:56:36;1.33;;;0.50;;
46391;SDS011;32098;49.448;7.904;2023-04-01T05:59:03;3.90;;;1.20;;
46391;SDS011;32098;49.448;7.904;2023-04-01T06:01:30;2.23;;;0.90;;
46391;SDS011;32098;49.448;7.904;2023-04-01T06:03:57;1.67;;;0.80;;
46391;SDS011;32098;49.448;7.904;2023-04-01T06:06:26;3.70;;;1.03;;
46391;SDS011;32098;49.448;7.904;2023-04-01T06:09:05;4.00;;;1.00;;
46391;SDS011;32098;49.448;7.904;2023-04-01T06:20:16;4.17;;;1.00;;
46391;SDS011;32098;49.448;7.904;2023-04-01T06:33:33;2.70;;;1.17;;
46391;SDS011;32098;49.448;7.904;2023-04-01T06:36:34;2.20;;;0.93;;
46391;SDS011;32098;49.448;7.904;2023-04-01T06:39:21;2.20;;;0.67;;
46391;SDS011;32098;49.448;7.904;2023-04-01T06:42:14;3.23;;;1.30;;
46391;SDS011;32098;49.448;7.904;2023-04-01T06:45:13;2.17;;;0.80;;
46391;SDS011;32098;49.448;7.904;2023-04-01T06:51:28;1.77;;;0.80;;
46391;SDS011;32098;49.448;7.904;2023-04-01T06:54:20;2.23;;;0.53;;
46391;SDS011;32098;49.448;7.904;2023-04-01T07:00:04;2.00;;;0.70;;
46391;SDS011;32098;49.448;7.904;2023-04-01T07:02:45;4.17;;;0.80;;
46391;SDS011;32098;49.448;7.904;2023-04-01T07:05:21;1.97;;;0.80;;
46391;SDS011;32098;49.448;7.904;2023-04-01T07:07:50;1.17;;;0.60;;
46391;SDS011;32098;49.448;7.904;2023-04-01T07:14:00;2.47;;;0.50;;
46391;SDS011;32098;49.448;7.904;2023-04-01T07:16:41;1.90;;;0.77;;
46391;SDS011;32098;49.448;7.904;2023-04-01T07:19:14;1.43;;;0.40;;
46391;SDS011;32098;49.448;7.904;2023-04-01T07:25:02;0.90;;;0.40;;
46391;SDS011;32098;49.448;7.904;2023-04-01T07:27:38;2.57;;;0.60;;
46391;SDS011;32098;49.448;7.904;2023-04-01T07:30:06;2.00;;;0.70;;
46391;SDS011;32098;49.448;7.904;2023-04-01T07:32:44;1.47;;;0.80;;
46391;SDS011;32098;49.448;7.904;2023-04-01T07:40:45;2.30;;;0.67;;
46391;SDS011;32098;49.448;7.904;2023-04-01T07:46:36;0.83;;;0.40;;
46391;SDS011;32098;49.448;7.904;2023-04-01T07:49:37;1.03;;;0.73;;
46391;SDS011;32098;49.448;7.904;2023-04-01T07:52:19;1.63;;;0.60;;
46391;SDS011;32098;49.448;7.904;2023-04-01T07:54:57;0.93;;;0.53;;
46391;SDS011;32098;49.448;7.904;2023-04-01T08:06:14;1.47;;;0.70;;
46391;SDS011;32098;49.448;7.904;2023-04-01T08:15:05;2.23;;;0.87;;
46391;SDS011;32098;49.448;7.904;2023-04-01T08:18:13;0.60;;;0.50;;
46391;SDS011;32098;49.448;7.904;2023-04-01T08:20:51;0.50;;;0.50;;
46391;SDS011;32098;49.448;7.904;2023-04-01T08:23:36;0.40;;;0.40;;
46391;SDS011;32098;49.448;7.904;2023-04-01T08:29:14;0.90;;;0.50;;
46391;SDS011;32098;49.448;7.904;2023-04-01T08:31:48;1.67;;;0.40;;
46391;SDS011;32098;49.448;7.904;2023-04-01T08:34:26;1.03;;;0.60;;
46391;SDS011;32098;49.448;7.904;2023-04-01T08:37:09;3.87;;;2.20;;
46391;SDS011;32098;49.448;7.904;2023-04-01T08:39:46;0.50;;;0.40;;
46391;SDS011;32098;49.448;7.904;2023-04-01T08:45:20;0.47;;;0.30;;
46391;SDS011;32098;49.448;7.904;2023-04-01T08:48:13;1.00;;;0.50;;
46391;SDS011;32098;49.448;7.904;2023-04-01T08:51:04;0.73;;;0.60;;
46391;SDS011;32098;49.448;7.904;2023-04-01T08:56:50;1.03;;;0.30;;
46391;SDS011;32098;49.448;7.904;2023-04-01T08:59:37;0.90;;;0.20;;
46391;SDS011;32098;49.448;7.904;2023-04-01T09:05:44;0.97;;;0.70;;
46391;SDS011;32098;49.448;7.904;2023-04-01T09:11:26;0.67;;;0.40;;
46391;SDS011;32098;49.448;7.904;2023-04-01T09:14:23;0.77;;;0.40;;
46391;SDS011;32098;49.448;7.904;2023-04-01T09:17:23;1.17;;;0.40;;
46391;SDS011;32098;49.448;7.904;2023-04-01T09:23:22;0.33;;;0.33;;
46391;SDS011;32098;49.448;7.904;2023-04-01T09:34:57;0.60;;;0.50;;
46391;SDS011;32098;49.448;7.904;2023-04-01T09:43:57;1.83;;;1.00;;
46391;SDS011;32098;49.448;7.904;2023-04-01T09:52:23;3.63;;;1.80;;
46391;SDS011;32098;49.448;7.904;2023-04-01T09:55:14;1.17;;;0.80;;
46391;SDS011;32098;49.448;7.904;2023-04-01T10:12:24;0.73;;;0.50;;
46391;SDS011;32098;49.448;7.904;2023-04-01T10:26:43;0.40;;;0.40;;
46391;SDS011;32098;49.448;7.904;2023-04-01T10:29:48;0.60;;;0.47;;
46391;SDS011;32098;49.448;7.904;2023-04-01T10:33:03;0.50;;;0.40;;
46391;SDS011;32098;49.448;7.904;2023-04-01T10:38:44;0.33;;;0.33;;
46391;SDS011;32098;49.448;7.904;2023-04-01T10:48:05;0.40;;;0.40;;
46391;SDS011;32098;49.448;7.904;2023-04-01T11:03:27;0.60;;;0.60;;
46391;SDS011;32098;49.448;7.904;2023-04-01T11:06:30;2.10;;;0.40;;
46391;SDS011;32098;49.448;7.904;2023-04-01T11:09:06;1.40;;;0.40;;
46391;SDS011;32098;49.448;7.904;2023-04-01T11:17:42;4.10;;;2.80;;
46391;SDS011;32098;49.448;7.904;2023-04-01T11:20:25;0.70;;;0.40;;
46391;SDS011;32098;49.448;7.904;2023-04-01T11:23:13;1.57;;;1.13;;
46391;SDS011;32098;49.448;7.904;2023-04-01T11:26:02;0.27;;;0.27;;
46391;SDS011;32098;49.448;7.904;2023-04-01T11:40:38;0.90;;;0.40;;
46391;SDS011;32098;49.448;7.904;2023-04-01T11:49:30;0.30;;;0.30;;
46391;SDS011;32098;49.448;7.904;2023-04-01T11:52:22;1.37;;;0.43;;
46391;SDS011;32098;49.448;7.904;2023-04-01T11:57:51;2.50;;;1.93;;
46391;SDS011;32098;49.448;7.904;2023-04-01T12:00:40;0.87;;;0.80;;
46391;SDS011;32098;49.448;7.904;2023-04-01T12:08:54;0.77;;;0.70;;
46391;SDS011;32098;49.448;7.904;2023-04-01T12:11:32;3.00;;;0.70;;
46391;SDS011;32098;49.448;7.904;2023-04-01T12:16:58;0.30;;;0.30;;
46391;SDS011;32098;49.448;7.904;2023-04-01T12:23:06;0.53;;;0.30;;
46391;SDS011;32098;49.448;7.904;2023-04-01T12:28:49;0.53;;;0.47;;
46391;SDS011;32098;49.448;7.904;2023-04-01T12:42:28;0.53;;;0.50;;
46391;SDS011;32098;49.448;7.904;2023-04-01T12:47:47;0.40;;;0.30;;
46391;SDS011;32098;49.448;7.904;2023-04-01T12:56:03;0.50;;;0.50;;
46391;SDS011;32098;49.448;7.904;2023-04-01T12:58:49;0.97;;;0.47;;
46391;SDS011;32098;49.448;7.904;2023-04-01T13:07:15;2.23;;;1.30;;
46391;SDS011;32098;49.448;7.904;2023-04-01T13:09:53;1.70;;;0.60;;
46391;SDS011;32098;49.448;7.904;2023-04-01T13:12:29;1.60;;;0.50;;
46391;SDS011;32098;49.448;7.904;2023-04-01T13:17:50;2.53;;;0.40;;
46391;SDS011;32098;49.448;7.904;2023-04-01T13:20:28;0.77;;;0.30;;
46391;SDS011;32098;49.448;7.904;2023-04-01T13:23:14;0.20;;;0.20;;
46391;SDS011;32098;49.448;7.904;2023-04-01T13:25:54;1.13;;;0.40;;
46391;SDS011;32098;49.448;7.904;2023-04-01T13:28:43;1.17;;;0.80;;
46391;SDS011;32098;49.448;7.904;2023-04-01T13:37:23;1.77;;;0.40;;
46391;SDS011;32098;49.448;7.904;2023-04-01T13:45:29;0.97;;;0.70;;
46391;SDS011;32098;49.448;7.904;2023-04-01T13:53:48;0.97;;;0.40;;
46391;SDS011;32098;49.448;7.904;2023-04-01T13:56:23;1.37;;;0.63;;
46391;SDS011;32098;49.448;7.904;2023-04-01T14:08:20;2.67;;;0.40;;
46391;SDS011;32098;49.448;7.904;2023-04-01T14:11:18;1.57;;;0.47;;
46391;SDS011;32098;49.448;7.904;2023-04-01T14:19:20;0.60;;;0.40;;
46391;SDS011;32098;49.448;7.904;2023-04-01T14:22:17;1.23;;;0.40;;
46391;SDS011;32098;49.448;7.904;2023-04-01T14:30:35;1.70;;;0.40;;
46391;SDS011;32098;49.448;7.904;2023-04-01T14:33:18;3.10;;;2.03;;
46391;SDS011;32098;49.448;7.904;2023-04-01T14:39:07;0.60;;;0.40;;
46391;SDS011;32098;49.448;7.904;2023-04-01T14:50:30;1.73;;;0.57;;
46391;SDS011;32098;49.448;7.904;2023-04-01T14:53:13;2.93;;;2.30;;
46391;SDS011;32098;49.448;7.904;2023-04-01T14:55:49;1.80;;;0.80;;
46391;SDS011;32098;49.448;7.904;2023-04-01T14:58:20;1.53;;;0.50;;
46391;SDS011;32098;49.448;7.904;2023-04-01T15:03:51;1.37;;;0.40;;
46391;SDS011;32098;49.448;7.904;2023-04-01T15:09:39;1.40;;;0.60;;
46391;SDS011;32098;49.448;7.904;2023-04-01T15:12:30;0.70;;;0.43;;
46391;SDS011;32098;49.448;7.904;2023-04-01T15:17:58;0.50;;;0.30;;
46391;SDS011;32098;49.448;7.904;2023-04-01T15:23:02;0.73;;;0.37;;
46391;SDS011;32098;49.448;7.904;2023-04-01T15:25:43;2.77;;;0.30;;
46391;SDS011;32098;49.448;7.904;2023-04-01T15:31:15;1.90;;;0.53;;
46391;SDS011;32098;49.448;7.904;2023-04-01T15:33:48;0.53;;;0.27;;
46391;SDS011;32098;49.448;7.904;2023-04-01T15:44:27;3.70;;;0.50;;
46391;SDS011;32098;49.448;7.904;2023-04-01T15:47:00;0.70;;;0.40;;
46391;SDS011;32098;49.448;7.904;2023-04-01T15:49:36;1.53;;;0.60;;
46391;SDS011;32098;49.448;7.904;2023-04-01T15:55:03;2.53;;;1.83;;
46391;SDS011;32098;49.448;7.904;2023-04-01T16:03:43;0.73;;;0.63;;
46391;SDS011;32098;49.448;7.904;2023-04-01T16:09:24;0.70;;;0.70;;
46391;SDS011;32098;49.448;7.904;2023-04-01T16:12:14;1.37;;;0.70;;
46391;SDS011;32098;49.448;7.904;2023-04-01T16:17:50;1.10;;;0.70;;
46391;SDS011;32098;49.448;7.904;2023-04-01T16:20:48;1.03;;;0.50;;
46391;SDS011;32098;49.448;7.904;2023-04-01T16:23:25;0.50;;;0.50;;
46391;SDS011;32098;49.448;7.904;2023-04-01T16:26:19;0.93;;;0.70;;
46391;SDS011;32098;49.448;7.904;2023-04-01T16:29:10;1.30;;;0.80;;
46391;SDS011;32098;49.448;7.904;2023-04-01T16:31:51;1.03;;;0.70;;
46391;SDS011;32098;49.448;7.904;2023-04-01T16:34:30;1.00;;;0.80;;
46391;SDS011;32098;49.448;7.904;2023-04-01T16:37:11;1.17;;;0.80;;
46391;SDS011;32098;49.448;7.904;2023-04-01T16:39:49;1.80;;;1.10;;
46391;SDS011;32098;49.448;7.904;2023-04-01T16:42:49;2.00;;;1.00;;
46391;SDS011;32098;49.448;7.904;2023-04-01T16:47:58;2.40;;;0.60;;
46391;SDS011;32098;49.448;7.904;2023-04-01T16:50:42;0.47;;;0.47;;
46391;SDS011;32098;49.448;7.904;2023-04-01T16:56:16;0.67;;;0.60;;
46391;SDS011;32098;49.448;7.904;2023-04-01T17:01:29;0.97;;;0.50;;
46391;SDS011;32098;49.448;7.904;2023-04-01T17:15:39;0.50;;;0.40;;
46391;SDS011;32098;49.448;7.904;2023-04-01T17:21:16;1.27;;;0.60;;
46391;SDS011;32098;49.448;7.904;2023-04-01T17:23:52;0.47;;;0.30;;
46391;SDS011;32098;49.448;7.904;2023-04-01T17:29:16;0.53;;;0.40;;
46391;SDS011;32098;49.448;7.904;2023-04-01T17:32:35;2.70;;;1.97;;
46391;SDS011;32098;49.448;7.904;2023-04-01T17:43:32;1.73;;;0.80;;
46391;SDS011;32098;49.448;7.904;2023-04-01T17:46:27;0.60;;;0.50;;
46391;SDS011;32098;49.448;7.904;2023-04-01T17:49:19;0.83;;;0.70;;
46391;SDS011;32098;49.448;7.904;2023-04-01T17:51:59;0.80;;;0.80;;
46391;SDS011;32098;49.448;7.904;2023-04-01T17:54:41;1.50;;;1.00;;
46391;SDS011;32098;49.448;7.904;2023-04-01T18:11:31;1.10;;;0.90;;
46391;SDS011;32098;49.448;7.904;2023-04-01T18:22:59;2.73;;;1.60;;
46391;SDS011;32098;49.448;7.904;2023-04-01T18:28:14;4.20;;;3.90;;
46391;SDS011;32098;49.448;7.904;2023-04-01T18:30:55;2.70;;;2.23;;
46391;SDS011;32098;49.448;7.904;2023-04-01T18:33:44;1.33;;;0.90;;
46391;SDS011;32098;49.448;7.904;2023-04-01T18:36:19;1.10;;;0.90;;
46391;SDS011;32098;49.448;7.904;2023-04-01T18:38:55;2.20;;;1.40;;
46391;SDS011;32098;49.448;7.904;2023-04-01T18:41:40;3.43;;;1.93;;
46391;SDS011;32098;49.448;7.904;2023-04-01T18:52:51;1.10;;;1.00;;
46391;SDS011;32098;49.448;7.904;2023-04-01T18:58:16;1.57;;;1.43;;
46391;SDS011;32098;49.448;7.904;2023-04-01T19:01:04;2.93;;;2.20;;
46391;SDS011;32098;49.448;7.904;2023-04-01T19:03:43;2.03;;;1.33;;
46391;SDS011;32098;49.448;7.904;2023-04-01T19:06:32;1.07;;;0.73;;
46391;SDS011;32098;49.448;7.904;2023-04-01T19:15:27;2.60;;;2.10;;
46391;SDS011;32098;49.448;7.904;2023-04-01T19:20:53;3.37;;;1.60;;
46391;SDS011;32098;49.448;7.904;2023-04-01T19:23:40;1.30;;;1.20;;
46391;SDS011;32098;49.448;7.904;2023-04-01T19:40:51;2.23;;;1.40;;
46391;SDS011;32098;49.448;7.904;2023-04-01T19:43:38;1.30;;;1.20;;
46391;SDS011;32098;49.448;7.904;2023-04-01T19:46:16;0.90;;;0.90;;
46391;SDS011;32098;49.448;7.904;2023-04-01T19:49:40;1.17;;;1.07;;
46391;SDS011;32098;49.448;7.904;2023-04-01T19:51:49;2.30;;;1.60;;
46391;SDS011;32098;49.448;7.904;2023-04-01T19:54:30;4.20;;;1.63;;
46391;SDS011;32098;49.448;7.904;2023-04-01T19:57:09;2.77;;;1.47;;
46391;SDS011;32098;49.448;7.904;2023-04-01T19:59:48;1.17;;;1.00;;
46391;SDS011;32098;49.448;7.904;2023-04-01T20:05:21;1.53;;;1.23;;
46391;SDS011;32098;49.448;7.904;2023-04-01T20:08:45;1.20;;;1.10;;
46391;SDS011;32098;49.448;7.904;2023-04-01T20:11:02;0.97;;;0.90;;
46391;SDS011;32098;49.448;7.904;2023-04-01T20:19:37;2.47;;;1.90;;
46391;SDS011;32098;49.448;7.904;2023-04-01T20:22:38;1.93;;;1.70;;
46391;SDS011;32098;49.448;7.904;2023-04-01T20:25:49;3.27;;;1.70;;
46391;SDS011;32098;49.448;7.904;2023-04-01T20:28:32;2.20;;;1.33;;
46391;SDS011;32098;49.448;7.904;2023-04-01T20:31:24;2.93;;;1.23;;
46391;SDS011;32098;49.448;7.904;2023-04-01T20:36:54;2.37;;;1.30;;
46391;SDS011;32098;49.448;7.904;2023-04-01T20:42:11;2.60;;;1.40;;
46391;SDS011;32098;49.448;7.904;2023-04-01T20:45:01;0.90;;;0.87;;
46391;SDS011;32098;49.448;7.904;2023-04-01T20:58:19;2.03;;;1.20;;
46391;SDS011;32098;49.448;7.904;2023-04-01T21:01:07;1.53;;;1.27;;
46391;SDS011;32098;49.448;7.904;2023-04-01T21:03:41;1.80;;;1.10;;
46391;SDS011;32098;49.448;7.904;2023-04-01T21:12:03;1.90;;;1.50;;
46391;SDS011;32098;49.448;7.904;2023-04-01T21:18:00;2.93;;;2.00;;
46391;SDS011;32098;49.448;7.904;2023-04-01T21:23:01;2.17;;;1.57;;
46391;SDS011;32098;49.448;7.904;2023-04-01T21:31:10;2.57;;;1.70;;
46391;SDS011;32098;49.448;7.904;2023-04-01T21:37:00;2.10;;;1.50;;
46391;SDS011;32098;49.448;7.904;2023-04-01T21:39:40;2.47;;;1.60;;
46391;SDS011;32098;49.448;7.904;2023-04-01T22:00:09;2.23;;;1.60;;
46391;SDS011;32098;49.448;7.904;2023-04-01T22:08:38;1.97;;;1.50;;
46391;SDS011;32098;49.448;7.904;2023-04-01T22:11:47;1.97;;;1.57;;
46391;SDS011;32098;49.448;7.904;2023-04-01T22:14:18;3.40;;;2.33;;
46391;SDS011;32098;49.448;7.904;2023-04-01T22:16:56;3.47;;;1.57;;
46391;SDS011;32098;49.448;7.904;2023-04-01T22:22:18;4.50;;;1.60;;
46391;SDS011;32098;49.448;7.904;2023-04-01T22:24:56;2.63;;;1.77;;
46391;SDS011;32098;49.448;7.904;2023-04-01T22:27:45;2.87;;;1.70;;
46391;SDS011;32098;49.448;7.904;2023-04-01T22:32:50;3.43;;;1.60;;
46391;SDS011;32098;49.448;7.904;2023-04-01T22:35:28;2.20;;;1.63;;
46391;SDS011;32098;49.448;7.904;2023-04-01T22:38:15;2.10;;;1.90;;
46391;SDS011;32098;49.448;7.904;2023-04-01T22:40:49;2.50;;;1.70;;
46391;SDS011;32098;49.448;7.904;2023-04-01T22:48:43;2.97;;;1.80;;
46391;SDS011;32098;49.448;7.904;2023-04-01T22:51:21;3.70;;;2.40;;
46391;SDS011;32098;49.448;7.904;2023-04-01T22:53:56;2.10;;;1.90;;
46391;SDS011;32098;49.448;7.904;2023-04-01T22:57:00;2.07;;;1.60;;
46391;SDS011;32098;49.448;7.904;2023-04-01T23:02:15;2.37;;;1.80;;
46391;SDS011;32098;49.448;7.904;2023-04-01T23:04:49;2.40;;;1.80;;
46391;SDS011;32098;49.448;7.904;2023-04-01T23:07:29;2.67;;;1.80;;
46391;SDS011;32098;49.448;7.904;2023-04-01T23:10:30;3.53;;;1.70;;
46391;SDS011;32098;49.448;7.904;2023-04-01T23:13:18;1.50;;;1.40;;
46391;SDS011;32098;49.448;7.904;2023-04-01T23:15:48;2.20;;;1.40;;
46391;SDS011;32098;49.448;7.904;2023-04-01T23:18:35;2.73;;;1.77;;
46391;SDS011;32098;49.448;7.904;2023-04-01T23:21:18;2.23;;;1.63;;
46391;SDS011;32098;49.448;7.904;2023-04-01T23:26:36;3.50;;;1.87;;
46391;SDS011;32098;49.448;7.904;2023-04-01T23:29:26;3.53;;;2.30;;
46391;SDS011;32098;49.448;7.904;2023-04-01T23:32:00;2.97;;;1.83;;
46391;SDS011;32098;49.448;7.904;2023-04-01T23:34:39;2.90;;;2.13;;
46391;SDS011;32098;49.448;7.904;2023-04-01T23:37:12;3.80;;;1.93;;
46391;SDS011;32098;49.448;7.904;2023-04-01T23:39:43;2.97;;;1.80;;
46391;SDS011;32098;49.448;7.904;2023-04-01T23:45:01;3.97;;;1.77;;
46391;SDS011;32098;49.448;7.904;2023-04-01T23:47:31;2.87;;;1.90;;
46391;SDS011;32098;49.448;7.904;2023-04-01T23:52:58;3.33;;;1.47;;
46391;SDS011;32098;49.448;7.904;2023-04-01T23:55:30;2.13;;;1.40;;
46391;SDS011;32098;49.448;7.904;2023-04-01T23:58:07;2.20;;;1.50;;
